Terminal Aerodrome Forecast
Issued by NWS Wilmington, OH

Current Version | Previous Version | Text Only | Print | Product List | Glossary Off
Versions: 1 2 3 4 5 6 7 8 9 10 11 12 13 14 15 16 17 18 19 20 21 22 23 24 25 26 27

787
FTUS41 KILN 202150 AAB
TAFCVG
TAF AMD
KCVG 202150Z 2022/2124 18009KT P6SM VCSH OVC035
      TEMPO 2022/2023 33015KT 2SM +TSRA BR OVC015CB
     FM202300 18009KT 3SM -TSRA BR OVC025CB
     FM210200 VRB03KT 4SM -SHRA BR OVC015
     FM210400 36005KT 2SM BR OVC007
     FM211200 35009KT 5SM BR OVC015=

USA.gov is the U.S. government's official web portal to all federal, state and local government web resources and services.